sensor_id;sensor_type;location;lat;lon;timestamp;pressure;altitude;pressure_sealevel;temperature;humidity
36014;BME280;22275;43.208;27.620;2022-10-22T00:01:25;102289.56;;;11.40;100.00
36014;BME280;22275;43.208;27.620;2022-10-22T00:03:54;102279.47;;;11.28;100.00
36014;BME280;22275;43.208;27.620;2022-10-22T00:06:21;102287.47;;;11.02;100.00
36014;BME280;22275;43.208;27.620;2022-10-22T00:08:49;102274.16;;;11.05;100.00
36014;BME280;22275;43.208;27.620;2022-10-22T00:11:18;102275.16;;;11.02;100.00
36014;BME280;22275;43.208;27.620;2022-10-22T00:13:45;102267.53;;;10.94;100.00
36014;BME280;22275;43.208;27.620;2022-10-22T00:16:13;102265.59;;;11.00;100.00
36014;BME280;22275;43.208;27.620;2022-10-22T00:18:40;102266.22;;;10.81;100.00
36014;BME280;22275;43.208;27.620;2022-10-22T00:21:09;102260.41;;;10.96;100.00
36014;BME280;22275;43.208;27.620;2022-10-22T00:23:39;102250.56;;;11.02;100.00
36014;BME280;22275;43.208;27.620;2022-10-22T00:26:07;102253.47;;;10.94;100.00
36014;BME280;22275;43.208;27.620;2022-10-22T00:28:34;102250.50;;;11.03;100.00
36014;BME280;22275;43.208;27.620;2022-10-22T00:31:01;102249.88;;;11.20;100.00
36014;BME280;22275;43.208;27.620;2022-10-22T00:33:29;102242.75;;;11.22;100.00
36014;BME280;22275;43.208;27.620;2022-10-22T00:35:56;102243.09;;;11.36;100.00
36014;BME280;22275;43.208;27.620;2022-10-22T00:38:25;102235.53;;;11.27;100.00
36014;BME280;22275;43.208;27.620;2022-10-22T00:40:52;102239.59;;;11.35;100.00
36014;BME280;22275;43.208;27.620;2022-10-22T00:43:19;102238.44;;;11.42;100.00
36014;BME280;22275;43.208;27.620;2022-10-22T00:45:47;102229.31;;;11.51;100.00
36014;BME280;22275;43.208;27.620;2022-10-22T00:48:16;102226.13;;;11.43;100.00
36014;BME280;22275;43.208;27.620;2022-10-22T00:50:46;102226.34;;;11.37;100.00
36014;BME280;22275;43.208;27.620;2022-10-22T00:53:20;102222.06;;;11.34;100.00
36014;BME280;22275;43.208;27.620;2022-10-22T00:55:51;102214.56;;;11.24;100.00
36014;BME280;22275;43.208;27.620;2022-10-22T00:58:20;102213.94;;;11.17;100.00
36014;BME280;22275;43.208;27.620;2022-10-22T01:00:49;102212.50;;;11.09;100.00
36014;BME280;22275;43.208;27.620;2022-10-22T01:03:16;102207.00;;;10.91;100.00
36014;BME280;22275;43.208;27.620;2022-10-22T01:05:48;102209.47;;;10.96;100.00
36014;BME280;22275;43.208;27.620;2022-10-22T01:08:24;102199.56;;;11.03;100.00
36014;BME280;22275;43.208;27.620;2022-10-22T01:11:01;102203.22;;;10.98;100.00
36014;BME280;22275;43.208;27.620;2022-10-22T01:13:46;102198.00;;;10.97;100.00
36014;BME280;22275;43.208;27.620;2022-10-22T01:16:18;102206.78;;;10.98;100.00
36014;BME280;22275;43.208;27.620;2022-10-22T01:18:54;102209.19;;;10.05;100.00
36014;BME280;22275;43.208;27.620;2022-10-22T01:21:25;102205.25;;;9.92;100.00
36014;BME280;22275;43.208;27.620;2022-10-22T01:24:17;102199.22;;;10.16;100.00
36014;BME280;22275;43.208;27.620;2022-10-22T01:27:08;102182.28;;;9.97;100.00
36014;BME280;22275;43.208;27.620;2022-10-22T01:29:41;102183.41;;;9.90;100.00
36014;BME280;22275;43.208;27.620;2022-10-22T01:32:14;102185.53;;;9.78;100.00
36014;BME280;22275;43.208;27.620;2022-10-22T01:34:45;102185.41;;;10.08;100.00
36014;BME280;22275;43.208;27.620;2022-10-22T01:37:14;102187.53;;;9.97;100.00
36014;BME280;22275;43.208;27.620;2022-10-22T01:39:44;102182.56;;;9.35;100.00
36014;BME280;22275;43.208;27.620;2022-10-22T01:42:13;102185.31;;;9.58;100.00
36014;BME280;22275;43.208;27.620;2022-10-22T01:44:42;102178.41;;;9.54;100.00
36014;BME280;22275;43.208;27.620;2022-10-22T01:47:15;102185.66;;;9.74;100.00
36014;BME280;22275;43.208;27.620;2022-10-22T01:53:06;102190.09;;;9.46;100.00
36014;BME280;22275;43.208;27.620;2022-10-22T01:55:42;102191.56;;;8.99;100.00
36014;BME280;22275;43.208;27.620;2022-10-22T01:58:21;102193.53;;;9.20;100.00
36014;BME280;22275;43.208;27.620;2022-10-22T02:00:58;102186.56;;;9.19;100.00
36014;BME280;22275;43.208;27.620;2022-10-22T02:03:34;102192.19;;;8.78;100.00
36014;BME280;22275;43.208;27.620;2022-10-22T02:06:09;102189.09;;;8.93;100.00
36014;BME280;22275;43.208;27.620;2022-10-22T02:08:40;102194.38;;;8.93;100.00
36014;BME280;22275;43.208;27.620;2022-10-22T02:11:11;102195.34;;;9.18;100.00
36014;BME280;22275;43.208;27.620;2022-10-22T02:13:42;102183.59;;;9.30;100.00
36014;BME280;22275;43.208;27.620;2022-10-22T02:16:18;102193.97;;;9.34;100.00
36014;BME280;22275;43.208;27.620;2022-10-22T02:18:50;102191.25;;;9.37;100.00
36014;BME280;22275;43.208;27.620;2022-10-22T02:21:19;102184.66;;;9.24;100.00
36014;BME280;22275;43.208;27.620;2022-10-22T02:23:47;102186.81;;;9.39;100.00
36014;BME280;22275;43.208;27.620;2022-10-22T02:26:20;102192.09;;;9.10;100.00
36014;BME280;22275;43.208;27.620;2022-10-22T02:28:54;102197.44;;;9.07;100.00
36014;BME280;22275;43.208;27.620;2022-10-22T02:31:27;102194.47;;;9.19;100.00
36014;BME280;22275;43.208;27.620;2022-10-22T02:33:58;102194.38;;;9.50;100.00
36014;BME280;22275;43.208;27.620;2022-10-22T02:36:27;102190.94;;;9.74;100.00
36014;BME280;22275;43.208;27.620;2022-10-22T02:38:55;102178.44;;;9.80;100.00
36014;BME280;22275;43.208;27.620;2022-10-22T02:41:22;102173.69;;;9.92;100.00
36014;BME280;22275;43.208;27.620;2022-10-22T02:43:52;102168.63;;;9.86;100.00
36014;BME280;22275;43.208;27.620;2022-10-22T02:46:20;102165.59;;;9.71;100.00
36014;BME280;22275;43.208;27.620;2022-10-22T02:48:49;102169.97;;;9.71;100.00
36014;BME280;22275;43.208;27.620;2022-10-22T02:51:16;102169.94;;;9.46;100.00
36014;BME280;22275;43.208;27.620;2022-10-22T02:53:43;102166.72;;;9.64;100.00
36014;BME280;22275;43.208;27.620;2022-10-22T02:56:10;102172.28;;;9.81;100.00
36014;BME280;22275;43.208;27.620;2022-10-22T02:58:38;102174.69;;;9.06;100.00
36014;BME280;22275;43.208;27.620;2022-10-22T03:01:06;102175.09;;;8.92;100.00
36014;BME280;22275;43.208;27.620;2022-10-22T03:03:33;102182.75;;;8.40;100.00
36014;BME280;22275;43.208;27.620;2022-10-22T03:06:01;102189.03;;;8.34;100.00
36014;BME280;22275;43.208;27.620;2022-10-22T03:08:29;102189.25;;;8.25;100.00
36014;BME280;22275;43.208;27.620;2022-10-22T03:10:56;102188.94;;;8.37;100.00
36014;BME280;22275;43.208;27.620;2022-10-22T03:13:23;102175.06;;;8.32;100.00
36014;BME280;22275;43.208;27.620;2022-10-22T03:15:50;102181.13;;;8.66;100.00
36014;BME280;22275;43.208;27.620;2022-10-22T03:18:17;102182.13;;;8.92;100.00
36014;BME280;22275;43.208;27.620;2022-10-22T03:20:45;102176.41;;;9.07;100.00
36014;BME280;22275;43.208;27.620;2022-10-22T03:23:15;102173.00;;;9.03;100.00
36014;BME280;22275;43.208;27.620;2022-10-22T03:25:45;102180.03;;;9.03;100.00
36014;BME280;22275;43.208;27.620;2022-10-22T03:28:15;102186.03;;;9.08;100.00
36014;BME280;22275;43.208;27.620;2022-10-22T03:30:43;102188.44;;;8.55;100.00
36014;BME280;22275;43.208;27.620;2022-10-22T03:33:10;102184.69;;;8.33;100.00
36014;BME280;22275;43.208;27.620;2022-10-22T03:35:41;102185.16;;;8.78;100.00
36014;BME280;22275;43.208;27.620;2022-10-22T03:38:10;102176.97;;;8.58;100.00
36014;BME280;22275;43.208;27.620;2022-10-22T03:40:40;102174.31;;;8.59;100.00
36014;BME280;22275;43.208;27.620;2022-10-22T03:43:08;102173.88;;;8.75;100.00
36014;BME280;22275;43.208;27.620;2022-10-22T03:45:35;102170.28;;;9.08;100.00
36014;BME280;22275;43.208;27.620;2022-10-22T03:48:03;102166.81;;;9.06;100.00
36014;BME280;22275;43.208;27.620;2022-10-22T03:50:30;102165.53;;;9.19;100.00
36014;BME280;22275;43.208;27.620;2022-10-22T03:52:57;102172.91;;;9.08;100.00
36014;BME280;22275;43.208;27.620;2022-10-22T03:55:25;102163.09;;;9.13;100.00
36014;BME280;22275;43.208;27.620;2022-10-22T03:57:53;102158.38;;;9.24;100.00
36014;BME280;22275;43.208;27.620;2022-10-22T04:00:20;102153.19;;;9.21;100.00
36014;BME280;22275;43.208;27.620;2022-10-22T04:02:48;102153.00;;;9.27;100.00
36014;BME280;22275;43.208;27.620;2022-10-22T04:05:15;102148.66;;;9.26;100.00
36014;BME280;22275;43.208;27.620;2022-10-22T04:07:42;102153.09;;;9.24;100.00
36014;BME280;22275;43.208;27.620;2022-10-22T04:10:09;102145.84;;;9.32;100.00
36014;BME280;22275;43.208;27.620;2022-10-22T04:12:36;102144.19;;;9.56;100.00
36014;BME280;22275;43.208;27.620;2022-10-22T04:15:06;102142.09;;;9.65;100.00
36014;BME280;22275;43.208;27.620;2022-10-22T04:17:34;102143.00;;;9.38;100.00
36014;BME280;22275;43.208;27.620;2022-10-22T04:20:03;102142.97;;;9.12;100.00
36014;BME280;22275;43.208;27.620;2022-10-22T04:22:32;102146.38;;;8.25;100.00
36014;BME280;22275;43.208;27.620;2022-10-22T04:24:59;102150.75;;;7.92;100.00
36014;BME280;22275;43.208;27.620;2022-10-22T04:27:29;102152.66;;;7.51;100.00
36014;BME280;22275;43.208;27.620;2022-10-22T04:29:57;102156.03;;;7.55;100.00
36014;BME280;22275;43.208;27.620;2022-10-22T04:32:26;102157.38;;;6.99;100.00
36014;BME280;22275;43.208;27.620;2022-10-22T04:34:53;102144.19;;;7.04;100.00
36014;BME280;22275;43.208;27.620;2022-10-22T04:37:20;102151.66;;;7.56;100.00
36014;BME280;22275;43.208;27.620;2022-10-22T04:39:48;102150.72;;;7.60;100.00
36014;BME280;22275;43.208;27.620;2022-10-22T04:42:15;102157.22;;;7.43;100.00
36014;BME280;22275;43.208;27.620;2022-10-22T04:44:42;102153.41;;;7.20;100.00
36014;BME280;22275;43.208;27.620;2022-10-22T04:47:09;102157.22;;;7.43;100.00
36014;BME280;22275;43.208;27.620;2022-10-22T04:49:38;102150.75;;;7.92;100.00
36014;BME280;22275;43.208;27.620;2022-10-22T04:52:05;102133.94;;;8.33;100.00
36014;BME280;22275;43.208;27.620;2022-10-22T04:54:33;102138.38;;;8.61;100.00
36014;BME280;22275;43.208;27.620;2022-10-22T04:57:00;102141.19;;;8.85;100.00
36014;BME280;22275;43.208;27.620;2022-10-22T04:59:27;102131.97;;;8.99;100.00
36014;BME280;22275;43.208;27.620;2022-10-22T05:01:54;102134.03;;;9.17;100.00
36014;BME280;22275;43.208;27.620;2022-10-22T05:04:22;102130.66;;;9.40;100.00
36014;BME280;22275;43.208;27.620;2022-10-22T05:06:50;102129.47;;;9.50;100.00
36014;BME280;22275;43.208;27.620;2022-10-22T05:09:19;102131.88;;;9.82;100.00
36014;BME280;22275;43.208;27.620;2022-10-22T05:11:48;102125.31;;;9.96;100.00
36014;BME280;22275;43.208;27.620;2022-10-22T05:14:17;102129.94;;;10.14;100.00
36014;BME280;22275;43.208;27.620;2022-10-22T05:16:44;102141.69;;;9.51;100.00
36014;BME280;22275;43.208;27.620;2022-10-22T05:19:16;102155.47;;;9.33;100.00
36014;BME280;22275;43.208;27.620;2022-10-22T05:21:43;102157.03;;;9.11;100.00
36014;BME280;22275;43.208;27.620;2022-10-22T05:24:12;102152.84;;;9.04;100.00
36014;BME280;22275;43.208;27.620;2022-10-22T05:26:39;102151.09;;;8.75;100.00
36014;BME280;22275;43.208;27.620;2022-10-22T05:29:07;102150.41;;;9.25;100.00
36014;BME280;22275;43.208;27.620;2022-10-22T05:31:34;102142.34;;;9.32;100.00
36014;BME280;22275;43.208;27.620;2022-10-22T05:34:02;102141.69;;;9.51;100.00
36014;BME280;22275;43.208;27.620;2022-10-22T05:36:29;102152.63;;;9.39;100.00
36014;BME280;22275;43.208;27.620;2022-10-22T05:38:56;102138.00;;;9.31;100.00
36014;BME280;22275;43.208;27.620;2022-10-22T05:41:26;102143.34;;;9.55;100.00
36014;BME280;22275;43.208;27.620;2022-10-22T05:43:54;102135.38;;;10.08;100.00
36014;BME280;22275;43.208;27.620;2022-10-22T05:46:23;102117.44;;;10.20;100.00
36014;BME280;22275;43.208;27.620;2022-10-22T05:48:51;102109.91;;;10.58;100.00
36014;BME280;22275;43.208;27.620;2022-10-22T05:51:19;102109.25;;;10.51;100.00
36014;BME280;22275;43.208;27.620;2022-10-22T05:53:50;102116.22;;;10.29;100.00
36014;BME280;22275;43.208;27.620;2022-10-22T05:56:17;102103.19;;;10.49;100.00
36014;BME280;22275;43.208;27.620;2022-10-22T05:58:46;102118.50;;;10.84;100.00
36014;BME280;22275;43.208;27.620;2022-10-22T06:01:15;102120.03;;;10.68;100.00
36014;BME280;22275;43.208;27.620;2022-10-22T06:03:44;102117.97;;;10.76;100.00
36014;BME280;22275;43.208;27.620;2022-10-22T06:06:17;102131.16;;;9.79;100.00
36014;BME280;22275;43.208;27.620;2022-10-22T06:08:46;102144.00;;;9.34;100.00
36014;BME280;22275;43.208;27.620;2022-10-22T06:11:15;102142.50;;;9.27;100.00
36014;BME280;22275;43.208;27.620;2022-10-22T06:13:43;102149.59;;;9.51;100.00
36014;BME280;22275;43.208;27.620;2022-10-22T06:16:13;102142.94;;;9.67;100.00
36014;BME280;22275;43.208;27.620;2022-10-22T06:18:40;102146.06;;;9.78;100.00
36014;BME280;22275;43.208;27.620;2022-10-22T06:21:09;102140.06;;;10.00;100.00
36014;BME280;22275;43.208;27.620;2022-10-22T06:23:37;102140.63;;;10.34;100.00
36014;BME280;22275;43.208;27.620;2022-10-22T06:26:06;102136.19;;;10.59;100.00
36014;BME280;22275;43.208;27.620;2022-10-22T06:28:34;102126.69;;;10.78;100.00
36014;BME280;22275;43.208;27.620;2022-10-22T06:31:02;102119.13;;;11.14;100.00
36014;BME280;22275;43.208;27.620;2022-10-22T06:33:32;102123.31;;;11.62;100.00
36014;BME280;22275;43.208;27.620;2022-10-22T06:36:08;102113.53;;;11.85;100.00
36014;BME280;22275;43.208;27.620;2022-10-22T06:38:36;102117.63;;;12.13;100.00
36014;BME280;22275;43.208;27.620;2022-10-22T06:41:04;102105.13;;;12.55;100.00
36014;BME280;22275;43.208;27.620;2022-10-22T06:43:31;102105.84;;;13.14;100.00
36014;BME280;22275;43.208;27.620;2022-10-22T06:45:59;102099.88;;;13.11;100.00
36014;BME280;22275;43.208;27.620;2022-10-22T06:48:27;102084.19;;;13.25;100.00
36014;BME280;22275;43.208;27.620;2022-10-22T06:51:00;102076.50;;;13.38;100.00
36014;BME280;22275;43.208;27.620;2022-10-22T06:53:27;102071.06;;;13.75;100.00
36014;BME280;22275;43.208;27.620;2022-10-22T06:55:54;102070.81;;;14.29;100.00
36014;BME280;22275;43.208;27.620;2022-10-22T06:58:21;102074.66;;;14.57;100.00
36014;BME280;22275;43.208;27.620;2022-10-22T07:00:49;102086.56;;;15.12;100.00
36014;BME280;22275;43.208;27.620;2022-10-22T07:03:16;102075.22;;;15.24;100.00
36014;BME280;22275;43.208;27.620;2022-10-22T07:05:43;102071.13;;;15.34;100.00
36014;BME280;22275;43.208;27.620;2022-10-22T07:08:12;102078.63;;;15.58;100.00
36014;BME280;22275;43.208;27.620;2022-10-22T07:10:39;102068.66;;;15.61;100.00
36014;BME280;22275;43.208;27.620;2022-10-22T07:13:06;102077.72;;;15.87;100.00
36014;BME280;22275;43.208;27.620;2022-10-22T07:15:33;102071.31;;;16.05;100.00
36014;BME280;22275;43.208;27.620;2022-10-22T07:18:00;102060.13;;;16.14;100.00
36014;BME280;22275;43.208;27.620;2022-10-22T07:20:29;102063.47;;;16.32;100.00
36014;BME280;22275;43.208;27.620;2022-10-22T07:22:56;102056.44;;;16.31;100.00
36014;BME280;22275;43.208;27.620;2022-10-22T07:25:25;102055.56;;;16.58;100.00
36014;BME280;22275;43.208;27.620;2022-10-22T07:27:52;102055.56;;;16.44;100.00
36014;BME280;22275;43.208;27.620;2022-10-22T07:30:19;102062.41;;;16.48;100.00
36014;BME280;22275;43.208;27.620;2022-10-22T07:32:46;102057.84;;;16.64;100.00
36014;BME280;22275;43.208;27.620;2022-10-22T07:35:13;102054.25;;;16.51;100.00
36014;BME280;22275;43.208;27.620;2022-10-22T07:37:41;102050.44;;;16.55;100.00
36014;BME280;22275;43.208;27.620;2022-10-22T07:40:09;102048.63;;;16.70;100.00
36014;BME280;22275;43.208;27.620;2022-10-22T07:42:37;102050.09;;;16.88;100.00
36014;BME280;22275;43.208;27.620;2022-10-22T07:45:05;102034.50;;;16.96;100.00
36014;BME280;22275;43.208;27.620;2022-10-22T07:47:33;102026.19;;;17.01;100.00
36014;BME280;22275;43.208;27.620;2022-10-22T07:50:00;102040.75;;;17.22;100.00
36014;BME280;22275;43.208;27.620;2022-10-22T07:52:27;102026.84;;;17.44;100.00
36014;BME280;22275;43.208;27.620;2022-10-22T07:54:54;102021.53;;;17.44;100.00
36014;BME280;22275;43.208;27.620;2022-10-22T07:57:21;102012.78;;;17.42;100.00
36014;BME280;22275;43.208;27.620;2022-10-22T07:59:50;102009.31;;;17.66;100.00
36014;BME280;22275;43.208;27.620;2022-10-22T08:02:17;102017.31;;;17.66;100.00
36014;BME280;22275;43.208;27.620;2022-10-22T08:04:45;102011.78;;;17.69;100.00
36014;BME280;22275;43.208;27.620;2022-10-22T08:07:12;102021.59;;;17.82;100.00
36014;BME280;22275;43.208;27.620;2022-10-22T08:09:39;102017.53;;;18.14;100.00
36014;BME280;22275;43.208;27.620;2022-10-22T08:12:07;102017.09;;;18.20;98.54
36014;BME280;22275;43.208;27.620;2022-10-22T08:14:34;102016.75;;;18.37;96.04
36014;BME280;22275;43.208;27.620;2022-10-22T08:17:03;101998.41;;;18.81;92.03
36014;BME280;22275;43.208;27.620;2022-10-22T08:19:30;101995.66;;;18.70;89.42
36014;BME280;22275;43.208;27.620;2022-10-22T08:21:57;101978.03;;;18.68;89.08
36014;BME280;22275;43.208;27.620;2022-10-22T08:24:25;101981.47;;;18.70;88.67
36014;BME280;22275;43.208;27.620;2022-10-22T08:26:52;101987.16;;;19.13;88.59
36014;BME280;22275;43.208;27.620;2022-10-22T08:29:20;101984.41;;;19.02;85.16
36014;BME280;22275;43.208;27.620;2022-10-22T08:31:48;101983.03;;;19.20;83.79
36014;BME280;22275;43.208;27.620;2022-10-22T08:34:17;101994.63;;;19.08;84.35
36014;BME280;22275;43.208;27.620;2022-10-22T08:36:45;101987.97;;;19.13;83.13
36014;BME280;22275;43.208;27.620;2022-10-22T08:39:13;101978.88;;;19.16;82.38
36014;BME280;22275;43.208;27.620;2022-10-22T08:41:44;101980.94;;;19.47;82.22
36014;BME280;22275;43.208;27.620;2022-10-22T08:44:36;101978.91;;;19.62;78.21
36014;BME280;22275;43.208;27.620;2022-10-22T08:47:23;101968.13;;;19.74;78.38
36014;BME280;22275;43.208;27.620;2022-10-22T08:49:55;101965.22;;;19.66;77.39
36014;BME280;22275;43.208;27.620;2022-10-22T08:52:22;101962.41;;;19.68;77.12
36014;BME280;22275;43.208;27.620;2022-10-22T08:54:52;101960.50;;;19.81;76.43
36014;BME280;22275;43.208;27.620;2022-10-22T08:57:35;101950.84;;;19.78;75.90
36014;BME280;22275;43.208;27.620;2022-10-22T09:00:05;101958.75;;;20.13;74.08
36014;BME280;22275;43.208;27.620;2022-10-22T09:02:44;101947.13;;;20.25;72.64
36014;BME280;22275;43.208;27.620;2022-10-22T09:05:22;101939.56;;;20.30;72.46
36014;BME280;22275;43.208;27.620;2022-10-22T09:07:54;101933.53;;;20.60;70.56
36014;BME280;22275;43.208;27.620;2022-10-22T09:10:25;101937.00;;;20.83;70.62
36014;BME280;22275;43.208;27.620;2022-10-22T09:12:53;101936.75;;;21.06;69.38
36014;BME280;22275;43.208;27.620;2022-10-22T09:15:20;101937.75;;;21.47;68.06
36014;BME280;22275;43.208;27.620;2022-10-22T09:17:57;101932.63;;;21.13;66.48
36014;BME280;22275;43.208;27.620;2022-10-22T09:20:35;101926.13;;;20.84;66.85
36014;BME280;22275;43.208;27.620;2022-10-22T09:23:19;101916.56;;;21.02;67.40
36014;BME280;22275;43.208;27.620;2022-10-22T09:25:49;101911.56;;;20.77;66.95
36014;BME280;22275;43.208;27.620;2022-10-22T09:28:17;101924.63;;;20.71;66.98
36014;BME280;22275;43.208;27.620;2022-10-22T09:30:44;101917.59;;;20.90;66.69
36014;BME280;22275;43.208;27.620;2022-10-22T09:33:14;101922.50;;;21.17;66.33
36014;BME280;22275;43.208;27.620;2022-10-22T09:35:47;101908.53;;;21.44;64.12
36014;BME280;22275;43.208;27.620;2022-10-22T09:38:19;101916.56;;;21.02;65.30
36014;BME280;22275;43.208;27.620;2022-10-22T09:40:49;101917.66;;;21.11;66.03
36014;BME280;22275;43.208;27.620;2022-10-22T09:43:17;101902.84;;;21.37;65.06
36014;BME280;22275;43.208;27.620;2022-10-22T09:45:45;101906.00;;;21.22;64.66
36014;BME280;22275;43.208;27.620;2022-10-22T09:48:19;101898.94;;;21.00;65.44
36014;BME280;22275;43.208;27.620;2022-10-22T09:50:59;101886.09;;;21.03;65.56
36014;BME280;22275;43.208;27.620;2022-10-22T09:53:30;101876.31;;;20.93;65.12
36014;BME280;22275;43.208;27.620;2022-10-22T09:56:06;101879.22;;;20.90;65.71
36014;BME280;22275;43.208;27.620;2022-10-22T09:58:41;101891.22;;;20.75;66.37
36014;BME280;22275;43.208;27.620;2022-10-22T10:01:16;101883.16;;;20.86;67.68
36014;BME280;22275;43.208;27.620;2022-10-22T10:03:44;101893.13;;;20.84;66.54
36014;BME280;22275;43.208;27.620;2022-10-22T10:06:17;101881.34;;;21.07;65.99
36014;BME280;22275;43.208;27.620;2022-10-22T10:08:45;101881.31;;;20.86;66.11
36014;BME280;22275;43.208;27.620;2022-10-22T10:11:18;101868.69;;;21.09;65.41
36014;BME280;22275;43.208;27.620;2022-10-22T10:13:56;101875.63;;;21.11;66.10
36014;BME280;22275;43.208;27.620;2022-10-22T10:16:39;101863.53;;;21.06;65.41
36014;BME280;22275;43.208;27.620;2022-10-22T10:19:20;101862.09;;;21.43;65.38
36014;BME280;22275;43.208;27.620;2022-10-22T10:22:01;101862.09;;;21.13;65.01
36014;BME280;22275;43.208;27.620;2022-10-22T10:24:42;101849.13;;;21.18;64.44
36014;BME280;22275;43.208;27.620;2022-10-22T10:27:17;101846.94;;;21.53;65.06
36014;BME280;22275;43.208;27.620;2022-10-22T10:29:53;101844.91;;;21.46;64.51
36014;BME280;22275;43.208;27.620;2022-10-22T10:32:33;101843.06;;;21.46;64.21
36014;BME280;22275;43.208;27.620;2022-10-22T10:35:14;101837.34;;;21.60;63.34
36014;BME280;22275;43.208;27.620;2022-10-22T10:37:56;101834.72;;;21.70;63.67
36014;BME280;22275;43.208;27.620;2022-10-22T10:40:33;101828.06;;;21.64;63.00
36014;BME280;22275;43.208;27.620;2022-10-22T10:43:08;101826.72;;;21.80;62.74
36014;BME280;22275;43.208;27.620;2022-10-22T10:45:42;101816.31;;;21.65;62.38
36014;BME280;22275;43.208;27.620;2022-10-22T10:48:31;101803.41;;;21.40;63.50
36014;BME280;22275;43.208;27.620;2022-10-22T10:51:07;101801.25;;;21.64;63.00
36014;BME280;22275;43.208;27.620;2022-10-22T10:54:00;101784.13;;;22.15;62.05
36014;BME280;22275;43.208;27.620;2022-10-22T10:56:35;101768.31;;;22.12;63.15
36014;BME280;22275;43.208;27.620;2022-10-22T10:59:13;101773.25;;;21.88;62.19
36014;BME280;22275;43.208;27.620;2022-10-22T11:01:58;101759.69;;;21.49;62.10
36014;BME280;22275;43.208;27.620;2022-10-22T11:07:30;101764.09;;;21.50;63.92
36014;BME280;22275;43.208;27.620;2022-10-22T11:10:08;101766.69;;;21.81;64.12
36014;BME280;22275;43.208;27.620;2022-10-22T11:12:40;101766.47;;;22.31;63.38
36014;BME280;22275;43.208;27.620;2022-10-22T11:15:19;101753.06;;;22.31;60.93
36014;BME280;22275;43.208;27.620;2022-10-22T11:17:52;101737.53;;;22.45;60.94
36014;BME280;22275;43.208;27.620;2022-10-22T11:20:25;101734.09;;;22.52;60.70
36014;BME280;22275;43.208;27.620;2022-10-22T11:22:57;101743.69;;;22.83;59.41
36014;BME280;22275;43.208;27.620;2022-10-22T11:25:30;101737.72;;;23.26;58.48
36014;BME280;22275;43.208;27.620;2022-10-22T11:28:02;101724.19;;;22.72;57.98
36014;BME280;22275;43.208;27.620;2022-10-22T11:30:33;101729.78;;;22.98;58.14
36014;BME280;22275;43.208;27.620;2022-10-22T11:33:03;101726.16;;;23.16;57.97
36014;BME280;22275;43.208;27.620;2022-10-22T11:35:35;101713.19;;;22.65;58.49
36014;BME280;22275;43.208;27.620;2022-10-22T11:38:06;101701.50;;;22.94;58.63
36014;BME280;22275;43.208;27.620;2022-10-22T11:40:37;101682.84;;;22.92;57.55
36014;BME280;22275;43.208;27.620;2022-10-22T11:43:06;101688.88;;;22.67;57.58
36014;BME280;22275;43.208;27.620;2022-10-22T11:45:37;101692.81;;;22.63;58.08
36014;BME280;22275;43.208;27.620;2022-10-22T11:48:11;101690.94;;;22.82;57.73
36014;BME280;22275;43.208;27.620;2022-10-22T11:50:47;101697.03;;;22.75;58.15
36014;BME280;22275;43.208;27.620;2022-10-22T11:53:20;101682.19;;;22.80;57.50
36014;BME280;22275;43.208;27.620;2022-10-22T11:55:57;101690.94;;;22.82;57.80
36014;BME280;22275;43.208;27.620;2022-10-22T11:58:31;101690.50;;;22.87;56.22
36014;BME280;22275;43.208;27.620;2022-10-22T12:01:19;101693.34;;;23.50;55.76
36014;BME280;22275;43.208;27.620;2022-10-22T12:03:49;101678.66;;;23.79;54.95
36014;BME280;22275;43.208;27.620;2022-10-22T12:06:19;101684.34;;;23.94;53.77
36014;BME280;22275;43.208;27.620;2022-10-22T12:09:00;101672.69;;;23.85;53.19
36014;BME280;22275;43.208;27.620;2022-10-22T12:11:38;101680.88;;;23.21;54.56
36014;BME280;22275;43.208;27.620;2022-10-22T12:14:16;101684.50;;;23.03;55.11
36014;BME280;22275;43.208;27.620;2022-10-22T12:16:47;101680.53;;;23.07;55.31
36014;BME280;22275;43.208;27.620;2022-10-22T12:19:23;101677.53;;;23.10;55.17
36014;BME280;22275;43.208;27.620;2022-10-22T12:21:53;101668.66;;;23.00;55.40
36014;BME280;22275;43.208;27.620;2022-10-22T12:24:22;101662.41;;;22.72;55.71
36014;BME280;22275;43.208;27.620;2022-10-22T12:26:51;101669.66;;;22.62;56.22
36014;BME280;22275;43.208;27.620;2022-10-22T12:29:20;101666.66;;;22.65;56.21
36014;BME280;22275;43.208;27.620;2022-10-22T12:31:51;101660.97;;;22.77;55.48
36014;BME280;22275;43.208;27.620;2022-10-22T12:34:22;101668.53;;;22.55;55.76
36014;BME280;22275;43.208;27.620;2022-10-22T12:36:51;101657.38;;;22.50;55.29
36014;BME280;22275;43.208;27.620;2022-10-22T12:39:20;101657.25;;;22.42;55.09
36014;BME280;22275;43.208;27.620;2022-10-22T12:41:53;101659.41;;;23.12;54.47
36014;BME280;22275;43.208;27.620;2022-10-22T12:44:20;101652.91;;;23.59;52.63
36014;BME280;22275;43.208;27.620;2022-10-22T12:46:48;101647.97;;;23.90;52.01
36014;BME280;22275;43.208;27.620;2022-10-22T12:49:19;101638.69;;;24.20;51.63
36014;BME280;22275;43.208;27.620;2022-10-22T12:51:47;101640.69;;;24.00;50.94
36014;BME280;22275;43.208;27.620;2022-10-22T12:54:22;101644.47;;;23.72;51.39
36014;BME280;22275;43.208;27.620;2022-10-22T12:56:53;101641.38;;;23.49;50.78
36014;BME280;22275;43.208;27.620;2022-10-22T12:59:23;101644.00;;;23.41;51.32
36014;BME280;22275;43.208;27.620;2022-10-22T13:01:51;101645.84;;;23.40;51.91